createdAt,value
2018-07-13T00:00:23.404Z,67.90
2018-07-13T00:01:23.293Z,69.40
2018-07-13T00:02:23.294Z,63.80
2018-07-13T00:03:23.499Z,70.60
2018-07-13T00:04:23.380Z,66.40
2018-07-13T00:05:23.390Z,68.50
2018-07-13T00:06:23.407Z,67.40
2018-07-13T00:07:23.405Z,76.50
2018-07-13T00:08:23.564Z,69.30
2018-07-13T00:09:23.423Z,70.10
2018-07-13T00:10:23.441Z,73.10
2018-07-13T00:11:23.444Z,74.50
2018-07-13T00:12:23.454Z,70.90
2018-07-13T00:13:23.521Z,73.00
2018-07-13T00:14:23.437Z,72.60
2018-07-13T00:15:23.444Z,74.30
2018-07-13T00:16:23.453Z,72.30
2018-07-13T00:17:23.462Z,72.30
2018-07-13T00:18:23.584Z,75.90
2018-07-13T00:19:23.476Z,70.80
2018-07-13T00:20:23.489Z,72.80
2018-07-13T00:21:23.511Z,77.30
2018-07-13T00:22:23.517Z,74.80
2018-07-13T00:23:23.531Z,72.50
2018-07-13T00:24:23.634Z,65.70
2018-07-13T00:25:23.552Z,69.40
2018-07-13T00:26:23.537Z,70.30
2018-07-13T00:27:23.579Z,74.40
2018-07-13T00:28:23.577Z,76.00
2018-07-13T00:29:23.680Z,79.50
2018-07-13T00:30:23.605Z,75.10
2018-07-13T00:31:23.604Z,72.60
2018-07-13T00:32:23.613Z,70.60
2018-07-13T00:33:23.632Z,75.20
2018-07-13T00:34:23.736Z,69.10
2018-07-13T00:35:23.644Z,73.50
2018-07-13T00:36:23.656Z,72.80
2018-07-13T00:37:23.677Z,70.20
2018-07-13T00:38:23.682Z,70.10
2018-07-13T00:39:23.830Z,74.00
2018-07-13T00:40:23.697Z,72.00
2018-07-13T00:41:23.709Z,71.70
2018-07-13T00:42:23.713Z,77.00
2018-07-13T00:43:23.744Z,82.90
2018-07-13T00:44:23.860Z,80.20
2018-07-13T00:45:23.755Z,81.50
2018-07-13T00:46:23.762Z,83.60
2018-07-13T00:47:23.788Z,84.00
2018-07-13T00:48:23.771Z,74.80
2018-07-13T00:49:23.907Z,81.00
2018-07-13T00:50:23.809Z,79.20
2018-07-13T00:51:23.937Z,75.50
2018-07-13T00:52:23.828Z,73.10
2018-07-13T00:53:23.831Z,76.50
2018-07-13T00:54:23.941Z,74.00
2018-07-13T00:55:23.857Z,77.30
2018-07-13T00:56:23.881Z,70.40
2018-07-13T00:57:23.880Z,67.70
2018-07-13T00:58:23.894Z,74.90
2018-07-13T00:59:24.002Z,72.00
2018-07-13T01:00:23.923Z,72.20
2018-07-13T01:01:23.909Z,78.20
2018-07-13T01:02:23.976Z,73.20
2018-07-13T01:03:23.935Z,75.00
2018-07-13T01:04:24.178Z,78.50
2018-07-13T01:05:23.966Z,78.30
2018-07-13T01:06:23.985Z,77.30
2018-07-13T01:07:23.979Z,68.60
2018-07-13T01:08:23.987Z,72.60
2018-07-13T01:09:24.098Z,71.30
2018-07-13T01:10:24.023Z,74.00
2018-07-13T01:11:24.022Z,69.80
2018-07-13T01:12:24.048Z,78.30
2018-07-13T01:13:24.048Z,77.00
2018-07-13T01:14:24.171Z,75.10
2018-07-13T01:15:24.058Z,76.50
2018-07-13T01:16:24.130Z,84.40
2018-07-13T01:17:24.106Z,78.80
2018-07-13T01:18:24.147Z,86.90
2018-07-13T01:19:24.265Z,85.20
2018-07-13T01:20:24.124Z,86.50
2018-07-13T01:21:24.132Z,92.30
2018-07-13T01:22:24.159Z,94.20
2018-07-13T01:23:24.155Z,86.90
2018-07-13T01:24:24.274Z,83.90
2018-07-13T01:25:24.171Z,92.10
2018-07-13T01:26:24.187Z,93.50
2018-07-13T01:27:24.207Z,99.30
2018-07-13T01:28:24.214Z,102.80
2018-07-13T01:29:24.227Z,106.40
2018-07-13T01:30:24.393Z,110.10
2018-07-13T01:31:24.255Z,106.30
2018-07-13T01:32:24.264Z,109.20
2018-07-13T01:33:24.247Z,108.00
2018-07-13T01:34:24.286Z,117.40
2018-07-13T01:35:24.379Z,118.30
2018-07-13T01:36:24.302Z,125.10
2018-07-13T01:37:24.322Z,120.70
2018-07-13T01:38:24.358Z,123.40
2018-07-13T01:39:24.339Z,133.30
2018-07-13T01:40:24.494Z,125.50
2018-07-13T01:41:24.331Z,129.40
2018-07-13T01:42:24.353Z,128.30
2018-07-13T01:43:24.364Z,131.20
2018-07-13T01:44:24.388Z,127.90
2018-07-13T01:45:24.529Z,135.30
2018-07-13T01:46:24.381Z,128.70
2018-07-13T01:47:24.403Z,121.70
2018-07-13T01:48:24.421Z,127.20
2018-07-13T01:49:24.428Z,122.80
2018-07-13T01:50:24.595Z,111.70
2018-07-13T01:51:24.433Z,105.20
2018-07-13T01:52:24.448Z,103.90
2018-07-13T01:53:24.457Z,101.00
2018-07-13T01:54:24.482Z,100.10
2018-07-13T01:55:24.629Z,102.60
2018-07-13T01:56:24.490Z,97.70
2018-07-13T01:57:24.515Z,96.50
2018-07-13T01:58:24.507Z,103.50
2018-07-13T01:59:24.518Z,93.90
2018-07-13T02:00:24.674Z,95.90
2018-07-13T02:01:24.565Z,94.80
2018-07-13T02:02:24.561Z,96.90
2018-07-13T02:03:24.561Z,93.40
2018-07-13T02:04:24.575Z,92.00
2018-07-13T02:05:24.694Z,89.80
2018-07-13T02:06:24.613Z,87.60
2018-07-13T02:07:24.623Z,92.60
2018-07-13T02:08:24.630Z,88.80
2018-07-13T02:09:24.636Z,92.90
2018-07-13T02:10:24.794Z,91.70
2018-07-13T02:11:24.647Z,91.40
2018-07-13T02:12:24.661Z,83.90
2018-07-13T02:13:24.682Z,87.00
2018-07-13T02:14:24.674Z,85.30
2018-07-13T02:15:24.834Z,85.30
2018-07-13T02:16:24.686Z,87.30
2018-07-13T02:17:24.715Z,83.60
2018-07-13T02:18:24.719Z,77.30
2018-07-13T02:19:24.728Z,82.10
2018-07-13T02:20:24.887Z,77.80
2018-07-13T02:21:24.740Z,74.30
2018-07-13T02:22:24.771Z,75.20
2018-07-13T02:23:24.767Z,81.70
2018-07-13T02:24:24.833Z,85.20
2018-07-13T02:25:24.944Z,74.70
2018-07-13T02:26:24.813Z,82.10
2018-07-13T02:27:24.818Z,85.20
2018-07-13T02:28:24.825Z,82.30
2018-07-13T02:29:24.837Z,85.00
2018-07-13T02:30:24.933Z,80.10
2018-07-13T02:31:24.849Z,83.30
2018-07-13T02:32:24.853Z,83.00
2018-07-13T02:33:24.862Z,87.00
2018-07-13T02:34:24.878Z,87.40
2018-07-13T02:35:24.994Z,85.30
2018-07-13T02:36:24.906Z,82.20
2018-07-13T02:37:24.927Z,81.00
2018-07-13T02:38:24.917Z,85.20
2018-07-13T02:39:24.925Z,81.30
2018-07-13T02:40:25.049Z,83.70
2018-07-13T02:41:25.006Z,82.30
2018-07-13T02:42:24.971Z,83.90
2018-07-13T02:43:24.963Z,85.60
2018-07-13T02:44:24.980Z,82.70
2018-07-13T02:45:25.092Z,83.70
2018-07-13T02:46:24.978Z,76.90
2018-07-13T02:47:25.000Z,77.70
2018-07-13T02:48:25.024Z,83.00
2018-07-13T02:49:25.015Z,79.10
2018-07-13T02:50:25.139Z,81.50
2018-07-13T02:51:25.062Z,74.70
2018-07-13T02:52:25.045Z,83.10
2018-07-13T02:53:25.060Z,85.70
2018-07-13T02:54:25.074Z,81.10
2018-07-13T02:55:25.168Z,81.00
2018-07-13T02:56:25.088Z,80.40
2018-07-13T02:57:25.091Z,82.30
2018-07-13T02:58:25.101Z,79.20
2018-07-13T02:59:25.116Z,84.10
2018-07-13T03:00:25.232Z,83.50
2018-07-13T03:01:25.146Z,85.30
2018-07-13T03:02:25.147Z,81.70
2018-07-13T03:03:25.165Z,78.70
2018-07-13T03:04:25.187Z,82.90
2018-07-13T03:05:25.191Z,76.60
2018-07-13T03:06:25.328Z,78.20
2018-07-13T03:07:25.184Z,76.80
2018-07-13T03:08:25.201Z,83.10
2018-07-13T03:09:25.192Z,85.20
2018-07-13T03:10:25.227Z,80.40
2018-07-13T03:11:25.328Z,78.40
2018-07-13T03:12:25.225Z,81.80
2018-07-13T03:13:25.229Z,78.60
2018-07-13T03:14:25.252Z,83.50
2018-07-13T03:15:25.266Z,87.20
2018-07-13T03:16:25.386Z,86.40
2018-07-13T03:17:25.300Z,85.00
2018-07-13T03:18:25.284Z,84.10
2018-07-13T03:19:25.297Z,78.20
2018-07-13T03:20:25.308Z,78.50
2018-07-13T03:21:25.419Z,83.00
2018-07-13T03:22:25.325Z,77.20
2018-07-13T03:23:25.328Z,76.00
2018-07-13T03:24:25.339Z,83.90
2018-07-13T03:25:25.336Z,82.40
2018-07-13T03:26:25.503Z,81.40
2018-07-13T03:27:25.361Z,83.90
2018-07-13T03:28:25.383Z,82.70
2018-07-13T03:29:25.378Z,86.70
2018-07-13T03:30:25.403Z,82.50
2018-07-13T03:31:25.485Z,87.20
2018-07-13T03:32:25.408Z,91.90
2018-07-13T03:33:25.404Z,101.50
2018-07-13T03:34:25.436Z,86.30
2018-07-13T03:35:25.440Z,90.90
2018-07-13T03:36:25.543Z,91.70
2018-07-13T03:37:25.458Z,92.90
2018-07-13T03:38:25.489Z,94.80
2018-07-13T03:39:25.487Z,97.20
2018-07-13T03:40:25.481Z,95.00
2018-07-13T03:41:25.576Z,95.70
2018-07-13T03:42:25.512Z,100.40
2018-07-13T03:43:25.510Z,101.50
2018-07-13T03:44:25.526Z,97.10
2018-07-13T03:45:25.522Z,97.90
2018-07-13T03:46:25.620Z,96.70
2018-07-13T03:47:25.656Z,95.40
2018-07-13T03:48:25.582Z,97.70
2018-07-13T03:49:25.554Z,93.10
2018-07-13T03:50:25.564Z,95.90
2018-07-13T03:51:25.678Z,105.10
2018-07-13T03:52:25.580Z,99.60
2018-07-13T03:53:25.600Z,98.40
2018-07-13T03:54:25.600Z,106.00
2018-07-13T03:55:25.609Z,105.80
2018-07-13T03:56:25.704Z,97.40
2018-07-13T03:57:25.622Z,100.80
2018-07-13T03:58:25.632Z,99.70
2018-07-13T03:59:25.639Z,101.70
2018-07-13T04:00:25.659Z,91.20
2018-07-13T04:01:25.750Z,98.80
2018-07-13T04:02:25.656Z,109.10
2018-07-13T04:03:25.685Z,97.90
2018-07-13T04:04:25.672Z,101.40
2018-07-13T04:05:25.737Z,104.40
2018-07-13T04:06:25.818Z,100.30
2018-07-13T04:07:25.702Z,104.00
2018-07-13T04:08:25.711Z,104.50
2018-07-13T04:09:25.728Z,106.30
2018-07-13T04:10:25.718Z,103.20
2018-07-13T04:11:25.888Z,109.00
2018-07-13T04:12:25.747Z,106.10
2018-07-13T04:13:25.744Z,99.60
2018-07-13T04:14:25.756Z,111.30
2018-07-13T04:15:25.785Z,111.00
2018-07-13T04:16:25.887Z,108.60
2018-07-13T04:17:25.791Z,104.80
2018-07-13T04:18:25.812Z,99.20
2018-07-13T04:19:25.792Z,104.70
2018-07-13T04:20:25.799Z,101.30
2018-07-13T04:21:25.915Z,103.40
2018-07-13T04:22:25.822Z,102.50
2018-07-13T04:23:25.833Z,104.70
2018-07-13T04:24:25.853Z,107.70
2018-07-13T04:25:25.843Z,100.30
2018-07-13T04:26:25.965Z,102.90
2018-07-13T04:27:25.874Z,95.40
2018-07-13T04:28:25.887Z,116.20
2018-07-13T04:29:25.902Z,103.70
2018-07-13T04:30:25.889Z,101.30
2018-07-13T04:31:26.015Z,103.30
2018-07-13T04:32:25.957Z,101.40
2018-07-13T04:33:25.929Z,104.60
2018-07-13T04:34:25.926Z,107.10
2018-07-13T04:35:25.955Z,106.60
2018-07-13T04:36:26.034Z,103.30
2018-07-13T04:37:25.953Z,100.30
2018-07-13T04:38:25.964Z,105.40
2018-07-13T04:39:25.980Z,106.90
2018-07-13T04:40:25.967Z,102.90
2018-07-13T04:41:26.086Z,106.40
2018-07-13T04:42:25.993Z,107.90
2018-07-13T04:43:26.009Z,102.80
2018-07-13T04:44:26.016Z,104.00
2018-07-13T04:45:26.005Z,106.60
2018-07-13T04:46:26.140Z,112.30
2018-07-13T04:47:26.059Z,106.20
2018-07-13T04:48:26.046Z,114.00
2018-07-13T04:49:26.077Z,108.80
2018-07-13T04:50:26.065Z,104.30
2018-07-13T04:51:26.154Z,108.00
2018-07-13T04:52:26.088Z,109.00
2018-07-13T04:53:26.077Z,110.90
2018-07-13T04:54:26.091Z,109.60
2018-07-13T04:55:26.118Z,109.40
2018-07-13T04:56:26.200Z,113.60
2018-07-13T04:57:26.125Z,113.80
2018-07-13T04:58:26.124Z,119.60
2018-07-13T04:59:26.196Z,119.00
2018-07-13T05:00:26.166Z,121.50
2018-07-13T05:01:26.256Z,120.90
2018-07-13T05:02:26.158Z,114.90
2018-07-13T05:03:26.167Z,121.50
2018-07-13T05:04:26.161Z,119.10
2018-07-13T05:05:26.180Z,119.20
2018-07-13T05:06:26.305Z,116.20
2018-07-13T05:07:26.197Z,118.00
2018-07-13T05:08:26.197Z,111.30
2018-07-13T05:09:26.209Z,106.10
2018-07-13T05:10:26.225Z,109.80
2018-07-13T05:11:26.330Z,118.50
2018-07-13T05:12:26.249Z,111.60
2018-07-13T05:13:26.257Z,126.90
2018-07-13T05:14:26.271Z,118.90
2018-07-13T05:15:26.279Z,123.20
2018-07-13T05:16:26.387Z,134.50
2018-07-13T05:17:26.283Z,128.30
2018-07-13T05:18:26.289Z,132.90
2018-07-13T05:19:26.314Z,139.50
2018-07-13T05:20:26.308Z,136.00
2018-07-13T05:21:26.498Z,140.90
2018-07-13T05:22:26.316Z,138.10
2018-07-13T05:23:26.327Z,139.60
2018-07-13T05:24:26.325Z,153.40
2018-07-13T05:25:26.340Z,143.60
2018-07-13T05:26:26.468Z,148.60
2018-07-13T05:27:26.367Z,140.80
2018-07-13T05:28:26.371Z,134.60
2018-07-13T05:29:26.360Z,136.40
2018-07-13T05:30:26.394Z,146.90
2018-07-13T05:31:26.401Z,146.50
2018-07-13T05:32:26.507Z,123.20
2018-07-13T05:33:26.393Z,131.20
2018-07-13T05:34:26.405Z,121.60
2018-07-13T05:35:26.422Z,123.70
2018-07-13T05:36:26.429Z,125.00
2018-07-13T05:37:26.431Z,126.00
2018-07-13T05:38:26.646Z,122.60
2018-07-13T05:39:26.462Z,119.50
2018-07-13T05:40:26.471Z,114.70
2018-07-13T05:41:26.485Z,111.50
2018-07-13T05:42:26.464Z,110.60
2018-07-13T05:43:26.586Z,113.00
2018-07-13T05:44:26.508Z,115.00
2018-07-13T05:45:26.507Z,108.70
2018-07-13T05:46:26.527Z,104.00
2018-07-13T05:47:26.524Z,111.80
2018-07-13T05:48:26.621Z,110.50
2018-07-13T05:49:26.552Z,101.70
2018-07-13T05:50:26.543Z,102.90
2018-07-13T05:51:26.542Z,107.50
2018-07-13T05:52:26.553Z,102.20
2018-07-13T05:53:26.657Z,102.90
2018-07-13T05:54:26.600Z,106.70
2018-07-13T05:55:26.595Z,111.50
2018-07-13T05:56:26.592Z,112.40
2018-07-13T05:57:26.621Z,113.40
2018-07-13T05:58:26.712Z,114.20
2018-07-13T05:59:26.632Z,114.30
2018-07-13T06:00:26.634Z,123.10
2018-07-13T06:01:26.636Z,112.40
2018-07-13T06:02:26.647Z,119.90
2018-07-13T06:03:26.766Z,118.10
2018-07-13T06:04:26.654Z,130.90
2018-07-13T06:05:26.659Z,128.40
2018-07-13T06:06:26.681Z,127.30
2018-07-13T06:07:26.702Z,118.00
2018-07-13T06:08:26.785Z,111.00
2018-07-13T06:09:26.704Z,117.30
2018-07-13T06:10:26.719Z,121.20
2018-07-13T06:11:26.721Z,117.20
2018-07-13T06:12:26.740Z,128.80
2018-07-13T06:13:26.878Z,116.80
2018-07-13T06:14:26.731Z,116.10
2018-07-13T06:15:26.752Z,116.30
2018-07-13T06:16:26.749Z,129.00
2018-07-13T06:17:26.764Z,122.80
2018-07-13T06:18:26.878Z,121.50
2018-07-13T06:19:26.785Z,120.70
2018-07-13T06:20:26.797Z,123.10
2018-07-13T06:21:26.799Z,120.00
2018-07-13T06:22:26.820Z,118.50
2018-07-13T06:23:26.920Z,112.00
2018-07-13T06:24:26.821Z,132.10
2018-07-13T06:25:26.831Z,118.30
2018-07-13T06:26:26.964Z,125.10
2018-07-13T06:27:26.863Z,127.80
2018-07-13T06:28:26.954Z,138.90
2018-07-13T06:29:26.865Z,134.00
2018-07-13T06:30:26.878Z,129.40
2018-07-13T06:31:26.904Z,134.60
2018-07-13T06:32:26.904Z,128.90
2018-07-13T06:33:27.000Z,119.90
2018-07-13T06:34:26.920Z,131.30
2018-07-13T06:35:26.932Z,129.70
2018-07-13T06:36:26.931Z,139.90
2018-07-13T06:37:26.938Z,142.20
2018-07-13T06:38:27.035Z,155.40
2018-07-13T06:39:26.961Z,147.50
2018-07-13T06:40:26.963Z,151.60
2018-07-13T06:41:26.964Z,152.50
2018-07-13T06:42:26.979Z,147.90
2018-07-13T06:43:27.066Z,138.80
2018-07-13T06:44:26.995Z,145.90
2018-07-13T06:45:27.009Z,142.80
2018-07-13T06:46:27.001Z,142.90
2018-07-13T06:47:27.030Z,151.90
2018-07-13T06:48:27.010Z,138.50
2018-07-13T06:49:27.174Z,151.40
2018-07-13T06:50:27.069Z,153.10
2018-07-13T06:51:27.033Z,148.60
2018-07-13T06:52:27.037Z,145.20
2018-07-13T06:53:27.060Z,146.40
2018-07-13T06:54:27.169Z,144.30
2018-07-13T06:55:27.075Z,153.20
2018-07-13T06:56:27.073Z,147.10
2018-07-13T06:57:27.098Z,151.70
2018-07-13T06:58:27.103Z,152.00
2018-07-13T06:59:27.208Z,135.10
2018-07-13T07:00:27.117Z,149.30
2018-07-13T07:01:27.121Z,140.00
2018-07-13T07:02:27.138Z,139.90
2018-07-13T07:03:27.139Z,146.00
2018-07-13T07:04:27.148Z,148.90
2018-07-13T07:05:27.255Z,152.40
2018-07-13T07:06:27.158Z,145.70
2018-07-13T07:07:27.159Z,159.20
2018-07-13T07:08:27.175Z,154.40
2018-07-13T07:09:27.193Z,148.30
2018-07-13T07:10:27.309Z,149.00
2018-07-13T07:11:27.206Z,151.30
2018-07-13T07:12:27.207Z,152.60
2018-07-13T07:13:27.229Z,154.90
2018-07-13T07:14:27.268Z,154.30
2018-07-13T07:15:27.341Z,157.40
2018-07-13T07:16:27.247Z,154.10
2018-07-13T07:17:27.242Z,147.90
2018-07-13T07:18:27.261Z,149.40
2018-07-13T07:19:27.266Z,149.30
2018-07-13T07:20:27.260Z,141.10
2018-07-13T07:21:27.387Z,141.40
2018-07-13T07:22:27.303Z,150.90
2018-07-13T07:23:27.296Z,140.30
2018-07-13T07:24:27.362Z,143.00
2018-07-13T07:25:27.299Z,148.50
2018-07-13T07:26:27.468Z,141.80
2018-07-13T07:27:27.350Z,137.60
2018-07-13T07:28:27.351Z,135.20
2018-07-13T07:29:27.361Z,132.00
2018-07-13T07:30:27.476Z,140.90
2018-07-13T07:31:27.483Z,136.10
2018-07-13T07:32:27.474Z,146.00
2018-07-13T07:33:27.386Z,141.30
2018-07-13T07:34:27.386Z,146.10
2018-07-13T07:35:27.390Z,137.30
2018-07-13T07:36:27.395Z,141.10
2018-07-13T07:37:27.410Z,125.90
2018-07-13T07:38:27.615Z,129.50
2018-07-13T07:39:27.415Z,130.30
2018-07-13T07:40:27.450Z,129.20
2018-07-13T07:41:27.447Z,134.80
2018-07-13T07:42:27.499Z,117.80
2018-07-13T07:43:27.565Z,128.50
2018-07-13T07:44:27.468Z,118.40
2018-07-13T07:45:27.465Z,124.30
2018-07-13T07:46:27.493Z,124.70
2018-07-13T07:47:27.508Z,123.40
2018-07-13T07:48:27.505Z,118.90
2018-07-13T07:49:27.607Z,126.90
2018-07-13T07:50:27.510Z,122.90
2018-07-13T07:51:27.543Z,124.50
2018-07-13T07:52:27.549Z,118.60
2018-07-13T07:53:27.540Z,130.70
2018-07-13T07:54:27.657Z,120.50
2018-07-13T07:55:27.554Z,118.30
2018-07-13T07:56:27.695Z,123.40
2018-07-13T07:57:27.660Z,125.30
2018-07-13T07:58:27.638Z,117.40
2018-07-13T07:59:27.715Z,129.40
2018-07-13T08:00:27.609Z,121.00
2018-07-13T08:01:27.631Z,118.80
2018-07-13T08:02:27.637Z,123.10
2018-07-13T08:03:27.757Z,120.10
2018-07-13T08:04:27.653Z,117.00
2018-07-13T08:05:27.762Z,126.50
2018-07-13T08:06:27.720Z,125.80
2018-07-13T08:07:27.750Z,123.50
2018-07-13T08:08:27.690Z,125.10
2018-07-13T08:09:27.690Z,117.50
2018-07-13T08:10:27.804Z,126.70
2018-07-13T08:11:27.719Z,137.40
2018-07-13T08:12:27.706Z,130.80
2018-07-13T08:13:27.768Z,126.90
2018-07-13T08:14:27.825Z,129.50
2018-07-13T08:15:27.843Z,133.10
2018-07-13T08:16:27.769Z,131.30
2018-07-13T08:17:27.789Z,124.40
2018-07-13T08:18:27.766Z,126.70
2018-07-13T08:19:27.793Z,119.80
2018-07-13T08:20:27.896Z,128.90
2018-07-13T08:21:27.802Z,120.30
2018-07-13T08:22:27.819Z,119.10
2018-07-13T08:23:27.861Z,124.20
2018-07-13T08:24:27.837Z,130.30
2018-07-13T08:25:27.940Z,126.80
2018-07-13T08:26:27.853Z,118.50
2018-07-13T08:27:27.849Z,117.90
2018-07-13T08:28:27.868Z,129.20
2018-07-13T08:29:27.875Z,124.80
2018-07-13T08:30:27.969Z,130.30
2018-07-13T08:31:27.888Z,118.80
2018-07-13T08:32:27.908Z,116.40
2018-07-13T08:33:27.903Z,114.10
2018-07-13T08:34:27.925Z,121.60
2018-07-13T08:35:28.021Z,119.40
2018-07-13T08:36:27.939Z,116.90
2018-07-13T08:37:27.951Z,117.10
2018-07-13T08:38:27.953Z,122.50
2018-07-13T08:39:27.981Z,117.40
2018-07-13T08:40:27.952Z,115.50
2018-07-13T08:41:28.128Z,123.20
2018-07-13T08:42:27.990Z,119.60
2018-07-13T08:43:27.999Z,114.50
2018-07-13T08:44:28.016Z,120.20
2018-07-13T08:45:27.997Z,120.70
2018-07-13T08:46:28.157Z,121.30
2018-07-13T08:47:28.070Z,120.00
2018-07-13T08:48:28.049Z,119.70
2018-07-13T08:49:28.037Z,114.20
2018-07-13T08:50:28.093Z,116.60
2018-07-13T08:51:28.286Z,113.90
2018-07-13T08:52:28.072Z,125.80
2018-07-13T08:53:28.101Z,114.70
2018-07-13T08:54:28.083Z,119.40
2018-07-13T08:55:28.113Z,120.60
2018-07-13T08:56:28.303Z,122.20
2018-07-13T08:57:28.118Z,118.70
2018-07-13T08:58:28.140Z,126.20
2018-07-13T08:59:28.136Z,121.30
2018-07-13T09:00:28.146Z,123.30
2018-07-13T09:01:28.310Z,120.90
2018-07-13T09:02:28.157Z,118.20
2018-07-13T09:03:28.169Z,128.20
2018-07-13T09:04:28.188Z,125.70
2018-07-13T09:05:28.191Z,124.30
2018-07-13T09:06:28.393Z,118.80
2018-07-13T09:07:28.265Z,117.60
2018-07-13T09:08:28.228Z,120.30
2018-07-13T09:09:28.228Z,117.30
2018-07-13T09:10:28.359Z,119.40
2018-07-13T09:11:28.390Z,112.70
2018-07-13T09:12:28.242Z,124.40
2018-07-13T09:13:28.294Z,116.80
2018-07-13T09:14:28.284Z,119.80
2018-07-13T09:15:28.336Z,117.20
2018-07-13T09:16:28.292Z,115.20
2018-07-13T09:17:28.404Z,119.00
2018-07-13T09:18:28.311Z,120.80
2018-07-13T09:19:28.325Z,122.60
2018-07-13T09:20:28.337Z,116.70
2018-07-13T09:21:28.340Z,122.30
2018-07-13T09:22:28.505Z,109.80
2018-07-13T09:23:28.361Z,114.10
2018-07-13T09:24:28.362Z,116.50
2018-07-13T09:25:28.367Z,113.50
2018-07-13T09:26:28.383Z,108.30
2018-07-13T09:27:28.591Z,103.40
2018-07-13T09:28:28.413Z,111.30
2018-07-13T09:29:28.424Z,110.20
2018-07-13T09:30:28.424Z,114.80
2018-07-13T09:31:28.437Z,110.30
2018-07-13T09:32:28.543Z,109.00
2018-07-13T09:33:28.452Z,114.10
2018-07-13T09:34:28.488Z,110.70
2018-07-13T09:35:28.464Z,108.90
2018-07-13T09:36:28.474Z,112.50
2018-07-13T09:37:28.634Z,111.70
2018-07-13T09:38:28.572Z,117.40
2018-07-13T09:39:28.509Z,110.20
2018-07-13T09:40:28.526Z,109.40
2018-07-13T09:41:28.536Z,111.50
2018-07-13T09:42:28.686Z,115.40
2018-07-13T09:43:28.546Z,114.30
2018-07-13T09:44:28.589Z,107.20
2018-07-13T09:45:28.565Z,109.00
2018-07-13T09:46:28.641Z,118.10
2018-07-13T09:47:28.699Z,107.20
2018-07-13T09:48:28.592Z,109.60
2018-07-13T09:49:28.583Z,111.60
2018-07-13T09:50:28.635Z,123.30
2018-07-13T09:51:28.613Z,114.30
2018-07-13T09:52:28.777Z,109.90
2018-07-13T09:53:28.640Z,110.20
2018-07-13T09:54:28.650Z,119.80
2018-07-13T09:55:28.654Z,109.40
2018-07-13T09:56:28.671Z,112.10
2018-07-13T09:57:28.820Z,114.50
2018-07-13T09:58:28.683Z,112.50
2018-07-13T09:59:28.675Z,100.20
2018-07-13T10:00:28.735Z,111.60
2018-07-13T10:01:28.707Z,110.50
2018-07-13T10:02:28.797Z,110.30
2018-07-13T10:03:28.770Z,119.00
2018-07-13T10:04:28.735Z,113.70
2018-07-13T10:05:28.731Z,117.50
2018-07-13T10:06:28.735Z,108.60
2018-07-13T10:07:28.919Z,107.50
2018-07-13T10:08:28.773Z,114.50
2018-07-13T10:09:28.776Z,109.50
2018-07-13T10:10:28.792Z,113.30
2018-07-13T10:11:28.792Z,111.70
2018-07-13T10:12:28.997Z,108.20
2018-07-13T10:13:28.885Z,109.80
2018-07-13T10:14:28.826Z,112.30
2018-07-13T10:15:28.848Z,103.30
2018-07-13T10:16:28.826Z,109.10
2018-07-13T10:17:28.996Z,105.00
2018-07-13T10:18:28.869Z,102.20
2018-07-13T10:19:28.869Z,105.10
2018-07-13T10:20:28.881Z,110.00
2018-07-13T10:21:28.896Z,101.60
2018-07-13T10:22:29.056Z,104.20
2018-07-13T10:23:28.919Z,102.80
2018-07-13T10:24:28.911Z,109.00
2018-07-13T10:25:28.919Z,105.40
2018-07-13T10:26:28.942Z,101.50
2018-07-13T10:27:29.074Z,105.30
2018-07-13T10:28:28.946Z,104.10
2018-07-13T10:29:28.992Z,110.80
2018-07-13T10:30:28.964Z,101.90
2018-07-13T10:31:28.969Z,105.70
2018-07-13T10:32:29.137Z,101.00
2018-07-13T10:33:29.025Z,101.40
2018-07-13T10:34:28.996Z,108.20
2018-07-13T10:35:29.013Z,106.70
2018-07-13T10:36:29.027Z,109.30
2018-07-13T10:37:29.187Z,104.80
2018-07-13T10:38:29.077Z,106.20
2018-07-13T10:39:29.049Z,99.90
2018-07-13T10:40:29.102Z,100.50
2018-07-13T10:41:29.066Z,104.70
2018-07-13T10:42:29.228Z,102.00
2018-07-13T10:43:29.109Z,106.60
2018-07-13T10:44:29.108Z,98.40
2018-07-13T10:45:29.112Z,103.80
2018-07-13T10:46:29.114Z,100.80
2018-07-13T10:47:29.275Z,112.60
2018-07-13T10:48:29.146Z,103.60
2018-07-13T10:49:29.155Z,103.10
2018-07-13T10:50:29.145Z,107.50
2018-07-13T10:51:29.156Z,114.40
2018-07-13T10:52:29.370Z,110.00
2018-07-13T10:53:29.189Z,105.20
2018-07-13T10:54:29.190Z,108.80
2018-07-13T10:55:29.191Z,102.80
2018-07-13T10:56:29.224Z,112.60
2018-07-13T10:57:29.418Z,99.80
2018-07-13T10:58:29.239Z,106.70
2018-07-13T10:59:29.241Z,100.80
2018-07-13T11:00:29.259Z,107.50
2018-07-13T11:01:29.291Z,97.60
2018-07-13T11:02:29.359Z,93.50
2018-07-13T11:03:29.280Z,90.40
2018-07-13T11:04:29.307Z,92.20
2018-07-13T11:05:29.301Z,95.40
2018-07-13T11:06:29.317Z,89.20
2018-07-13T11:07:29.420Z,86.20
2018-07-13T11:08:29.336Z,83.20
2018-07-13T11:09:29.340Z,84.20
2018-07-13T11:10:29.361Z,73.40
2018-07-13T11:11:29.380Z,73.90
2018-07-13T11:12:29.470Z,69.20
2018-07-13T11:13:29.383Z,67.90
2018-07-13T11:14:29.401Z,70.20
2018-07-13T11:15:29.407Z,69.40
2018-07-13T11:16:29.419Z,63.90
2018-07-13T11:17:29.579Z,60.50
2018-07-13T11:18:29.453Z,60.70
2018-07-13T11:19:29.451Z,62.70
2018-07-13T11:20:29.471Z,60.20
2018-07-13T11:21:29.485Z,60.40
2018-07-13T11:22:29.657Z,53.20
2018-07-13T11:23:29.492Z,52.60
2018-07-13T11:24:29.535Z,50.90
2018-07-13T11:25:29.544Z,55.20
2018-07-13T11:26:29.547Z,54.00
2018-07-13T11:27:29.717Z,55.40
2018-07-13T11:28:29.563Z,58.80
2018-07-13T11:29:29.599Z,60.00
2018-07-13T11:30:29.604Z,57.10
2018-07-13T11:31:29.654Z,48.90
2018-07-13T11:32:29.834Z,51.90
2018-07-13T11:33:29.646Z,49.90
2018-07-13T11:34:29.678Z,51.40
2018-07-13T11:35:29.679Z,51.60
2018-07-13T11:36:29.703Z,50.20
2018-07-13T11:37:29.855Z,47.50
2018-07-13T11:38:29.706Z,50.90
2018-07-13T11:39:29.730Z,51.00
2018-07-13T11:40:29.800Z,50.90
2018-07-13T11:41:29.775Z,47.00
2018-07-13T11:42:29.977Z,50.80
2018-07-13T11:43:29.821Z,50.10
2018-07-13T11:44:29.797Z,51.70
2018-07-13T11:45:29.816Z,56.00
2018-07-13T11:46:29.855Z,54.20
2018-07-13T11:47:29.967Z,50.80
2018-07-13T11:48:29.869Z,49.50
2018-07-13T11:49:29.898Z,49.10
2018-07-13T11:50:29.908Z,48.20
2018-07-13T11:51:29.935Z,51.40
2018-07-13T11:52:30.081Z,50.70
2018-07-13T11:53:29.957Z,48.10
2018-07-13T11:54:29.983Z,50.10
2018-07-13T11:56:30.000Z,49.50
2018-07-13T11:57:30.169Z,50.20
2018-07-13T11:58:30.046Z,49.30
2018-07-13T11:59:30.049Z,50.90
2018-07-13T12:00:30.128Z,47.30
2018-07-13T12:01:30.092Z,49.70
2018-07-13T12:02:30.209Z,49.70
2018-07-13T12:03:30.129Z,48.20
2018-07-13T12:04:30.159Z,47.50
2018-07-13T12:05:30.149Z,47.90
2018-07-13T12:06:30.173Z,47.70
2018-07-13T12:07:30.261Z,47.80
2018-07-13T12:08:30.363Z,47.60
2018-07-13T12:09:30.213Z,47.60
2018-07-13T12:10:30.229Z,48.50
2018-07-13T12:11:30.257Z,47.90
2018-07-13T12:12:30.317Z,49.40
2018-07-13T12:13:30.295Z,51.60
2018-07-13T12:14:30.465Z,49.20
2018-07-13T12:15:30.321Z,51.60
2018-07-13T12:16:30.340Z,48.50
2018-07-13T12:17:30.469Z,50.00
2018-07-13T12:18:30.373Z,51.30
2018-07-13T12:19:30.543Z,53.20
2018-07-13T12:20:30.412Z,51.30
2018-07-13T12:21:30.415Z,52.10
2018-07-13T12:22:30.435Z,51.70
2018-07-13T12:23:30.444Z,53.00
2018-07-13T12:24:30.681Z,49.90
2018-07-13T12:25:30.486Z,51.00
2018-07-13T12:26:30.501Z,49.30
2018-07-13T12:27:30.545Z,50.70
2018-07-13T12:28:30.541Z,53.10
2018-07-13T12:29:30.697Z,52.20
2018-07-13T12:30:30.590Z,52.80
2018-07-13T12:31:30.573Z,52.10
2018-07-13T12:32:30.674Z,56.50
2018-07-13T12:33:30.610Z,57.40
2018-07-13T12:34:30.784Z,57.20
2018-07-13T12:35:30.691Z,57.60
2018-07-13T12:36:30.665Z,56.10
2018-07-13T12:37:30.685Z,50.10
2018-07-13T12:38:30.699Z,49.50
2018-07-13T12:39:30.855Z,48.50